メインページ
METAR-TAF:

METAR-TAF

空港 :

ダマスカス, シリア

ダマスカス国際空港

緯度: 33-25N, 経度: 036-31E, 海抜: 608m

現時点の気象観測

当レポートは51分前の11:00(UTC)に作成
北/北東の風 4kt
気温 26°C
湿度 26%
気圧 1017 hPa
視程10km以上
1,500メートル以下は雲なし、積乱雲なし

METAR: OSDI 241100Z 03004KT CAVOK 26/05 Q1017

時間: 14:51 (11:51 UTC)

予報

当レポートは2時間51分前の09:00(UTC)に作成
予報は24日の 12時(UTC)から 25日の 18時(UTC)まで有効
南西の風 10kt
視程10km以上
1,500メートル以下は雲なし、積乱雲なし
24日の 12時(UTC)から 24日の 18時(UTC)まで一時的に
西の風 10kt、最大20ktの突風を伴う
視程10km以上
高度3000ftの雲はほとんどない

TAF: OSDI 240900Z 2412/2518 22010KT CAVOK TEMPO 2412/2418 28010G20KT 9999 FEW030

4,000以上の空港の気象観測と天気予報(METAR報とTAF報)

利用可能な観測所は地図上に黄色い丸と赤い丸で示す。

丸の上にカーソルを重ねると観測所名を参照できる。

次にクリックすると気象観測と天気予報を参照できる。

マップの切り替え:黒色「×」印の緑ボタンをクリックして拡大、「-」印の緑ボタンをクリックして縮小、緑色の三角印をクリックして隣りの地図に切り替え


METAR-TAF: